sensor_id;sensor_type;location;lat;lon;timestamp;temperature;humidity
23544;DHT22;11950;51.230;4.012;2022-07-09T00:02:15;17.50;99.90
23544;DHT22;11950;51.230;4.012;2022-07-09T00:04:41;17.50;99.90
23544;DHT22;11950;51.230;4.012;2022-07-09T00:07:08;17.50;99.90
23544;DHT22;11950;51.230;4.012;2022-07-09T00:09:34;17.50;99.90
23544;DHT22;11950;51.230;4.012;2022-07-09T00:12:00;17.50;99.90
23544;DHT22;11950;51.230;4.012;2022-07-09T00:14:27;17.50;99.90
23544;DHT22;11950;51.230;4.012;2022-07-09T00:16:53;17.40;99.90
23544;DHT22;11950;51.230;4.012;2022-07-09T00:19:19;17.40;99.90
23544;DHT22;11950;51.230;4.012;2022-07-09T00:21:45;17.30;99.90
23544;DHT22;11950;51.230;4.012;2022-07-09T00:24:12;17.30;99.90
23544;DHT22;11950;51.230;4.012;2022-07-09T00:26:38;17.30;99.90
23544;DHT22;11950;51.230;4.012;2022-07-09T00:29:04;17.30;99.90
23544;DHT22;11950;51.230;4.012;2022-07-09T00:31:31;17.30;99.90
23544;DHT22;11950;51.230;4.012;2022-07-09T00:33:57;17.30;99.90
23544;DHT22;11950;51.230;4.012;2022-07-09T00:36:23;17.30;99.90
23544;DHT22;11950;51.230;4.012;2022-07-09T00:38:49;17.30;99.90
23544;DHT22;11950;51.230;4.012;2022-07-09T00:41:15;17.40;99.90
23544;DHT22;11950;51.230;4.012;2022-07-09T00:43:49;17.40;99.90
23544;DHT22;11950;51.230;4.012;2022-07-09T00:46:17;17.40;99.90
23544;DHT22;11950;51.230;4.012;2022-07-09T00:48:43;17.40;99.90
23544;DHT22;11950;51.230;4.012;2022-07-09T00:51:11;17.40;99.90
23544;DHT22;11950;51.230;4.012;2022-07-09T00:53:38;17.40;99.90
23544;DHT22;11950;51.230;4.012;2022-07-09T00:56:05;17.40;99.90
23544;DHT22;11950;51.230;4.012;2022-07-09T00:58:33;17.40;99.90
23544;DHT22;11950;51.230;4.012;2022-07-09T01:01:01;17.40;99.90
23544;DHT22;11950;51.230;4.012;2022-07-09T01:03:27;17.40;99.90
23544;DHT22;11950;51.230;4.012;2022-07-09T01:05:53;17.40;99.90
23544;DHT22;11950;51.230;4.012;2022-07-09T01:08:22;17.40;99.90
23544;DHT22;11950;51.230;4.012;2022-07-09T01:10:50;17.40;99.90
23544;DHT22;11950;51.230;4.012;2022-07-09T01:13:17;17.40;99.90
23544;DHT22;11950;51.230;4.012;2022-07-09T01:15:43;17.40;99.90
23544;DHT22;11950;51.230;4.012;2022-07-09T01:18:10;17.40;99.90
23544;DHT22;11950;51.230;4.012;2022-07-09T01:20:37;17.30;99.90
23544;DHT22;11950;51.230;4.012;2022-07-09T01:23:03;17.30;99.90
23544;DHT22;11950;51.230;4.012;2022-07-09T01:25:43;17.30;99.90
23544;DHT22;11950;51.230;4.012;2022-07-09T01:28:12;17.30;99.90
23544;DHT22;11950;51.230;4.012;2022-07-09T01:30:40;17.20;99.90
23544;DHT22;11950;51.230;4.012;2022-07-09T01:33:07;17.20;99.90
23544;DHT22;11950;51.230;4.012;2022-07-09T01:35:33;17.20;99.90
23544;DHT22;11950;51.230;4.012;2022-07-09T01:38:00;17.20;99.90
23544;DHT22;11950;51.230;4.012;2022-07-09T01:40:26;17.20;99.90
23544;DHT22;11950;51.230;4.012;2022-07-09T01:42:52;17.20;99.90
23544;DHT22;11950;51.230;4.012;2022-07-09T01:45:19;17.20;99.90
23544;DHT22;11950;51.230;4.012;2022-07-09T01:47:45;17.10;99.90
23544;DHT22;11950;51.230;4.012;2022-07-09T01:50:12;17.10;99.90
23544;DHT22;11950;51.230;4.012;2022-07-09T01:52:38;17.10;99.90
23544;DHT22;11950;51.230;4.012;2022-07-09T01:55:05;17.00;99.90
23544;DHT22;11950;51.230;4.012;2022-07-09T01:57:31;17.00;99.90
23544;DHT22;11950;51.230;4.012;2022-07-09T01:59:57;17.00;99.90
23544;DHT22;11950;51.230;4.012;2022-07-09T02:02:23;17.00;99.90
23544;DHT22;11950;51.230;4.012;2022-07-09T02:04:50;17.00;99.90
23544;DHT22;11950;51.230;4.012;2022-07-09T02:07:16;17.00;99.90
23544;DHT22;11950;51.230;4.012;2022-07-09T02:09:42;16.90;99.90
23544;DHT22;11950;51.230;4.012;2022-07-09T02:12:08;16.90;99.90
23544;DHT22;11950;51.230;4.012;2022-07-09T02:14:35;17.00;99.90
23544;DHT22;11950;51.230;4.012;2022-07-09T02:17:02;17.00;99.90
23544;DHT22;11950;51.230;4.012;2022-07-09T02:19:28;17.00;99.90
23544;DHT22;11950;51.230;4.012;2022-07-09T02:21:54;17.00;99.90
23544;DHT22;11950;51.230;4.012;2022-07-09T02:24:20;17.00;99.90
23544;DHT22;11950;51.230;4.012;2022-07-09T02:26:47;17.00;99.90
23544;DHT22;11950;51.230;4.012;2022-07-09T02:29:13;17.00;99.90
23544;DHT22;11950;51.230;4.012;2022-07-09T02:31:39;17.00;99.90
23544;DHT22;11950;51.230;4.012;2022-07-09T02:34:05;17.10;99.90
23544;DHT22;11950;51.230;4.012;2022-07-09T02:36:32;17.10;99.90
23544;DHT22;11950;51.230;4.012;2022-07-09T02:38:58;17.10;99.90
23544;DHT22;11950;51.230;4.012;2022-07-09T02:41:24;17.10;99.90
23544;DHT22;11950;51.230;4.012;2022-07-09T02:43:50;17.20;99.90
23544;DHT22;11950;51.230;4.012;2022-07-09T02:46:16;17.20;99.90
23544;DHT22;11950;51.230;4.012;2022-07-09T02:48:43;17.20;99.90
23544;DHT22;11950;51.230;4.012;2022-07-09T02:51:09;17.20;99.90
23544;DHT22;11950;51.230;4.012;2022-07-09T02:53:35;17.20;99.90
23544;DHT22;11950;51.230;4.012;2022-07-09T02:56:02;17.20;99.90
23544;DHT22;11950;51.230;4.012;2022-07-09T02:58:28;17.20;99.90
23544;DHT22;11950;51.230;4.012;2022-07-09T03:00:54;17.20;99.90
23544;DHT22;11950;51.230;4.012;2022-07-09T03:03:20;17.20;99.90
23544;DHT22;11950;51.230;4.012;2022-07-09T03:05:49;17.20;99.90
23544;DHT22;11950;51.230;4.012;2022-07-09T03:08:16;17.20;99.90
23544;DHT22;11950;51.230;4.012;2022-07-09T03:10:42;17.20;99.90
23544;DHT22;11950;51.230;4.012;2022-07-09T03:13:09;17.20;99.90
23544;DHT22;11950;51.230;4.012;2022-07-09T03:15:35;17.10;99.90
23544;DHT22;11950;51.230;4.012;2022-07-09T03:18:01;17.10;99.90
23544;DHT22;11950;51.230;4.012;2022-07-09T03:20:27;17.10;99.90
23544;DHT22;11950;51.230;4.012;2022-07-09T03:22:53;17.10;99.90
23544;DHT22;11950;51.230;4.012;2022-07-09T03:25:20;17.10;99.90
23544;DHT22;11950;51.230;4.012;2022-07-09T03:27:46;17.10;99.90
23544;DHT22;11950;51.230;4.012;2022-07-09T03:30:12;17.00;99.90
23544;DHT22;11950;51.230;4.012;2022-07-09T03:32:38;17.00;99.90
23544;DHT22;11950;51.230;4.012;2022-07-09T03:35:05;17.00;99.90
23544;DHT22;11950;51.230;4.012;2022-07-09T03:37:32;17.00;99.90
23544;DHT22;11950;51.230;4.012;2022-07-09T03:39:59;16.90;99.90
23544;DHT22;11950;51.230;4.012;2022-07-09T03:42:25;16.90;99.90
23544;DHT22;11950;51.230;4.012;2022-07-09T03:44:51;16.80;99.90
23544;DHT22;11950;51.230;4.012;2022-07-09T03:47:17;16.80;99.90
23544;DHT22;11950;51.230;4.012;2022-07-09T03:49:44;16.80;99.90
23544;DHT22;11950;51.230;4.012;2022-07-09T03:52:10;16.80;99.90
23544;DHT22;11950;51.230;4.012;2022-07-09T03:54:36;16.80;99.90
23544;DHT22;11950;51.230;4.012;2022-07-09T03:57:02;16.80;99.90
23544;DHT22;11950;51.230;4.012;2022-07-09T03:59:29;16.80;99.90
23544;DHT22;11950;51.230;4.012;2022-07-09T04:01:55;16.80;99.90
23544;DHT22;11950;51.230;4.012;2022-07-09T04:04:21;16.80;99.90
23544;DHT22;11950;51.230;4.012;2022-07-09T04:06:47;16.80;99.90
23544;DHT22;11950;51.230;4.012;2022-07-09T04:09:14;16.80;99.90
23544;DHT22;11950;51.230;4.012;2022-07-09T04:11:40;16.70;99.90
23544;DHT22;11950;51.230;4.012;2022-07-09T04:14:06;16.70;99.90
23544;DHT22;11950;51.230;4.012;2022-07-09T04:16:32;16.70;99.90
23544;DHT22;11950;51.230;4.012;2022-07-09T04:18:58;16.70;99.90
23544;DHT22;11950;51.230;4.012;2022-07-09T04:21:25;16.70;99.90
23544;DHT22;11950;51.230;4.012;2022-07-09T04:23:51;16.70;99.90
23544;DHT22;11950;51.230;4.012;2022-07-09T04:26:19;16.80;99.90
23544;DHT22;11950;51.230;4.012;2022-07-09T04:28:45;16.80;99.90
23544;DHT22;11950;51.230;4.012;2022-07-09T04:31:12;16.80;99.90
23544;DHT22;11950;51.230;4.012;2022-07-09T04:33:38;16.80;99.90
23544;DHT22;11950;51.230;4.012;2022-07-09T04:36:05;16.80;99.90
23544;DHT22;11950;51.230;4.012;2022-07-09T04:38:31;16.80;99.90
23544;DHT22;11950;51.230;4.012;2022-07-09T04:40:57;16.90;99.90
23544;DHT22;11950;51.230;4.012;2022-07-09T04:43:24;16.90;99.90
23544;DHT22;11950;51.230;4.012;2022-07-09T04:45:51;16.90;99.90
23544;DHT22;11950;51.230;4.012;2022-07-09T04:48:17;16.90;99.90
23544;DHT22;11950;51.230;4.012;2022-07-09T04:50:43;17.00;99.90
23544;DHT22;11950;51.230;4.012;2022-07-09T04:53:09;17.00;99.90
23544;DHT22;11950;51.230;4.012;2022-07-09T04:55:35;17.10;99.90
23544;DHT22;11950;51.230;4.012;2022-07-09T04:58:02;17.10;99.90
23544;DHT22;11950;51.230;4.012;2022-07-09T05:00:28;17.20;99.90
23544;DHT22;11950;51.230;4.012;2022-07-09T05:02:54;17.20;99.90
23544;DHT22;11950;51.230;4.012;2022-07-09T05:05:20;17.20;99.90
23544;DHT22;11950;51.230;4.012;2022-07-09T05:07:51;17.30;99.90
23544;DHT22;11950;51.230;4.012;2022-07-09T05:10:18;17.40;99.90
23544;DHT22;11950;51.230;4.012;2022-07-09T05:12:46;17.40;99.90
23544;DHT22;11950;51.230;4.012;2022-07-09T05:15:13;17.40;99.90
23544;DHT22;11950;51.230;4.012;2022-07-09T05:17:40;17.50;99.90
23544;DHT22;11950;51.230;4.012;2022-07-09T05:20:08;17.50;99.90
23544;DHT22;11950;51.230;4.012;2022-07-09T05:22:36;17.60;99.90
23544;DHT22;11950;51.230;4.012;2022-07-09T05:25:04;17.60;99.90
23544;DHT22;11950;51.230;4.012;2022-07-09T05:27:31;17.70;99.90
23544;DHT22;11950;51.230;4.012;2022-07-09T05:29:57;17.70;99.90
23544;DHT22;11950;51.230;4.012;2022-07-09T05:32:24;17.80;99.90
23544;DHT22;11950;51.230;4.012;2022-07-09T05:34:50;17.90;99.90
23544;DHT22;11950;51.230;4.012;2022-07-09T05:37:17;18.10;99.90
23544;DHT22;11950;51.230;4.012;2022-07-09T05:39:43;17.90;99.90
23544;DHT22;11950;51.230;4.012;2022-07-09T05:42:10;18.00;99.90
23544;DHT22;11950;51.230;4.012;2022-07-09T05:44:36;18.10;99.90
23544;DHT22;11950;51.230;4.012;2022-07-09T05:47:02;18.20;99.90
23544;DHT22;11950;51.230;4.012;2022-07-09T05:49:28;18.30;99.90
23544;DHT22;11950;51.230;4.012;2022-07-09T05:51:55;18.40;99.90
23544;DHT22;11950;51.230;4.012;2022-07-09T05:54:22;18.50;99.90
23544;DHT22;11950;51.230;4.012;2022-07-09T05:56:49;18.60;99.90
23544;DHT22;11950;51.230;4.012;2022-07-09T05:59:15;18.60;99.90
23544;DHT22;11950;51.230;4.012;2022-07-09T06:01:41;18.70;99.90
23544;DHT22;11950;51.230;4.012;2022-07-09T06:04:09;18.80;99.90
23544;DHT22;11950;51.230;4.012;2022-07-09T06:06:35;18.80;99.90
23544;DHT22;11950;51.230;4.012;2022-07-09T06:09:01;18.90;99.90
23544;DHT22;11950;51.230;4.012;2022-07-09T06:11:28;19.00;99.90
23544;DHT22;11950;51.230;4.012;2022-07-09T06:13:54;19.00;99.90
23544;DHT22;11950;51.230;4.012;2022-07-09T06:16:20;19.10;99.90
23544;DHT22;11950;51.230;4.012;2022-07-09T06:18:46;19.20;99.90
23544;DHT22;11950;51.230;4.012;2022-07-09T06:21:13;19.30;99.90
23544;DHT22;11950;51.230;4.012;2022-07-09T06:23:39;19.40;99.90
23544;DHT22;11950;51.230;4.012;2022-07-09T06:26:05;19.40;99.90
23544;DHT22;11950;51.230;4.012;2022-07-09T06:28:32;19.50;99.90
23544;DHT22;11950;51.230;4.012;2022-07-09T06:31:01;19.60;99.90
23544;DHT22;11950;51.230;4.012;2022-07-09T06:33:27;19.60;99.90
23544;DHT22;11950;51.230;4.012;2022-07-09T06:35:53;19.70;99.90
23544;DHT22;11950;51.230;4.012;2022-07-09T06:38:19;19.80;99.90
23544;DHT22;11950;51.230;4.012;2022-07-09T06:40:46;19.80;99.90
23544;DHT22;11950;51.230;4.012;2022-07-09T06:43:12;19.80;99.90
23544;DHT22;11950;51.230;4.012;2022-07-09T06:45:46;19.90;99.90
23544;DHT22;11950;51.230;4.012;2022-07-09T06:48:12;19.90;99.90
23544;DHT22;11950;51.230;4.012;2022-07-09T06:50:39;19.90;99.90
23544;DHT22;11950;51.230;4.012;2022-07-09T06:53:05;19.90;99.90
23544;DHT22;11950;51.230;4.012;2022-07-09T06:55:32;20.00;99.90
23544;DHT22;11950;51.230;4.012;2022-07-09T06:57:58;20.10;99.90
23544;DHT22;11950;51.230;4.012;2022-07-09T07:00:26;20.20;99.90
23544;DHT22;11950;51.230;4.012;2022-07-09T07:02:52;20.40;99.90
23544;DHT22;11950;51.230;4.012;2022-07-09T07:05:18;20.40;99.90
23544;DHT22;11950;51.230;4.012;2022-07-09T07:07:44;20.60;99.90
23544;DHT22;11950;51.230;4.012;2022-07-09T07:10:10;20.60;99.90
23544;DHT22;11950;51.230;4.012;2022-07-09T07:12:37;20.70;99.90
23544;DHT22;11950;51.230;4.012;2022-07-09T07:15:03;20.80;99.90
23544;DHT22;11950;51.230;4.012;2022-07-09T07:17:29;20.90;99.90
23544;DHT22;11950;51.230;4.012;2022-07-09T07:19:56;21.00;99.90
23544;DHT22;11950;51.230;4.012;2022-07-09T07:22:22;21.00;99.90
23544;DHT22;11950;51.230;4.012;2022-07-09T07:24:48;21.10;99.90
23544;DHT22;11950;51.230;4.012;2022-07-09T07:27:14;21.20;99.90
23544;DHT22;11950;51.230;4.012;2022-07-09T07:29:41;21.30;99.90
23544;DHT22;11950;51.230;4.012;2022-07-09T07:32:08;21.30;99.90
23544;DHT22;11950;51.230;4.012;2022-07-09T07:34:34;21.30;99.90
23544;DHT22;11950;51.230;4.012;2022-07-09T07:37:00;21.40;99.90
23544;DHT22;11950;51.230;4.012;2022-07-09T07:39:27;21.50;99.90
23544;DHT22;11950;51.230;4.012;2022-07-09T07:41:53;21.60;99.90
23544;DHT22;11950;51.230;4.012;2022-07-09T07:44:19;21.70;99.90
23544;DHT22;11950;51.230;4.012;2022-07-09T07:46:45;21.70;99.90
23544;DHT22;11950;51.230;4.012;2022-07-09T07:49:12;21.80;99.90
23544;DHT22;11950;51.230;4.012;2022-07-09T07:51:38;21.90;99.90
23544;DHT22;11950;51.230;4.012;2022-07-09T07:54:04;22.00;99.90
23544;DHT22;11950;51.230;4.012;2022-07-09T07:56:31;22.10;99.90
23544;DHT22;11950;51.230;4.012;2022-07-09T07:58:58;22.10;99.90
23544;DHT22;11950;51.230;4.012;2022-07-09T08:01:24;22.20;99.90
23544;DHT22;11950;51.230;4.012;2022-07-09T08:03:51;22.30;99.90
23544;DHT22;11950;51.230;4.012;2022-07-09T08:06:17;22.30;99.90
23544;DHT22;11950;51.230;4.012;2022-07-09T08:08:43;22.40;99.90
23544;DHT22;11950;51.230;4.012;2022-07-09T08:11:09;22.40;99.90
23544;DHT22;11950;51.230;4.012;2022-07-09T08:13:36;22.40;99.90
23544;DHT22;11950;51.230;4.012;2022-07-09T08:16:03;22.40;99.90
23544;DHT22;11950;51.230;4.012;2022-07-09T08:18:29;22.40;99.90
23544;DHT22;11950;51.230;4.012;2022-07-09T08:20:56;22.50;99.90
23544;DHT22;11950;51.230;4.012;2022-07-09T08:23:22;22.50;99.90
23544;DHT22;11950;51.230;4.012;2022-07-09T08:25:49;22.50;99.90
23544;DHT22;11950;51.230;4.012;2022-07-09T08:28:16;22.60;99.90
23544;DHT22;11950;51.230;4.012;2022-07-09T08:30:43;22.50;99.90
23544;DHT22;11950;51.230;4.012;2022-07-09T08:33:09;22.50;99.90
23544;DHT22;11950;51.230;4.012;2022-07-09T08:35:35;22.50;99.90
23544;DHT22;11950;51.230;4.012;2022-07-09T08:38:01;22.50;99.90
23544;DHT22;11950;51.230;4.012;2022-07-09T08:40:28;22.60;99.90
23544;DHT22;11950;51.230;4.012;2022-07-09T08:42:57;22.60;99.90
23544;DHT22;11950;51.230;4.012;2022-07-09T08:45:28;22.70;99.90
23544;DHT22;11950;51.230;4.012;2022-07-09T08:47:56;22.70;99.90
23544;DHT22;11950;51.230;4.012;2022-07-09T08:50:23;22.70;99.90
23544;DHT22;11950;51.230;4.012;2022-07-09T08:52:51;22.70;99.90
23544;DHT22;11950;51.230;4.012;2022-07-09T08:55:18;22.70;99.90
23544;DHT22;11950;51.230;4.012;2022-07-09T08:57:44;22.70;99.90
23544;DHT22;11950;51.230;4.012;2022-07-09T09:00:10;22.70;99.90
23544;DHT22;11950;51.230;4.012;2022-07-09T09:02:38;22.80;99.90
23544;DHT22;11950;51.230;4.012;2022-07-09T09:05:12;22.70;99.90
23544;DHT22;11950;51.230;4.012;2022-07-09T09:07:39;22.80;99.90
23544;DHT22;11950;51.230;4.012;2022-07-09T09:10:06;22.80;99.90
23544;DHT22;11950;51.230;4.012;2022-07-09T09:12:32;22.80;99.90
23544;DHT22;11950;51.230;4.012;2022-07-09T09:14:59;22.90;99.90
23544;DHT22;11950;51.230;4.012;2022-07-09T09:17:26;23.00;99.90
23544;DHT22;11950;51.230;4.012;2022-07-09T09:19:52;23.00;99.90
23544;DHT22;11950;51.230;4.012;2022-07-09T09:22:18;23.10;99.90
23544;DHT22;11950;51.230;4.012;2022-07-09T09:24:49;23.20;99.90
23544;DHT22;11950;51.230;4.012;2022-07-09T09:27:16;23.20;99.90
23544;DHT22;11950;51.230;4.012;2022-07-09T09:29:49;23.20;99.90
23544;DHT22;11950;51.230;4.012;2022-07-09T09:32:19;23.10;99.90
23544;DHT22;11950;51.230;4.012;2022-07-09T09:34:50;23.10;99.90
23544;DHT22;11950;51.230;4.012;2022-07-09T09:37:27;23.10;99.90
23544;DHT22;11950;51.230;4.012;2022-07-09T09:39:54;23.10;99.90
23544;DHT22;11950;51.230;4.012;2022-07-09T09:42:23;23.10;99.90
23544;DHT22;11950;51.230;4.012;2022-07-09T09:44:50;23.20;99.90
23544;DHT22;11950;51.230;4.012;2022-07-09T09:47:20;23.20;99.90
23544;DHT22;11950;51.230;4.012;2022-07-09T09:49:49;23.20;99.90
23544;DHT22;11950;51.230;4.012;2022-07-09T09:52:15;23.20;99.90
23544;DHT22;11950;51.230;4.012;2022-07-09T09:54:44;23.20;99.90
23544;DHT22;11950;51.230;4.012;2022-07-09T09:57:13;23.20;99.90
23544;DHT22;11950;51.230;4.012;2022-07-09T09:59:41;23.20;99.90
23544;DHT22;11950;51.230;4.012;2022-07-09T10:02:09;23.20;99.90
23544;DHT22;11950;51.230;4.012;2022-07-09T10:04:40;23.20;99.90
23544;DHT22;11950;51.230;4.012;2022-07-09T10:07:07;23.20;99.90
23544;DHT22;11950;51.230;4.012;2022-07-09T10:09:33;23.20;99.90
23544;DHT22;11950;51.230;4.012;2022-07-09T10:12:00;23.20;99.90
23544;DHT22;11950;51.230;4.012;2022-07-09T10:16:52;23.20;99.90
23544;DHT22;11950;51.230;4.012;2022-07-09T10:19:29;23.30;99.90
23544;DHT22;11950;51.230;4.012;2022-07-09T10:21:57;23.30;99.90
23544;DHT22;11950;51.230;4.012;2022-07-09T10:24:25;23.30;99.90
23544;DHT22;11950;51.230;4.012;2022-07-09T10:26:52;23.30;99.90
23544;DHT22;11950;51.230;4.012;2022-07-09T10:29:25;23.30;99.90
23544;DHT22;11950;51.230;4.012;2022-07-09T10:31:53;23.30;99.90
23544;DHT22;11950;51.230;4.012;2022-07-09T10:34:46;23.30;99.90
23544;DHT22;11950;51.230;4.012;2022-07-09T10:37:15;23.30;99.90
23544;DHT22;11950;51.230;4.012;2022-07-09T10:39:52;23.30;99.90
23544;DHT22;11950;51.230;4.012;2022-07-09T10:42:20;23.30;99.90
23544;DHT22;11950;51.230;4.012;2022-07-09T10:44:47;23.30;99.90
23544;DHT22;11950;51.230;4.012;2022-07-09T10:47:16;23.30;99.90
23544;DHT22;11950;51.230;4.012;2022-07-09T10:49:42;23.40;99.90
23544;DHT22;11950;51.230;4.012;2022-07-09T10:52:09;23.40;99.90
23544;DHT22;11950;51.230;4.012;2022-07-09T10:54:46;23.40;99.90
23544;DHT22;11950;51.230;4.012;2022-07-09T10:57:13;23.30;99.90
23544;DHT22;11950;51.230;4.012;2022-07-09T10:59:45;23.30;99.90
23544;DHT22;11950;51.230;4.012;2022-07-09T11:02:21;23.30;99.90
23544;DHT22;11950;51.230;4.012;2022-07-09T11:04:49;23.30;99.90
23544;DHT22;11950;51.230;4.012;2022-07-09T11:07:23;23.40;99.90
23544;DHT22;11950;51.230;4.012;2022-07-09T11:09:52;23.50;99.90
23544;DHT22;11950;51.230;4.012;2022-07-09T11:12:20;23.60;99.90
23544;DHT22;11950;51.230;4.012;2022-07-09T11:14:50;23.70;99.90
23544;DHT22;11950;51.230;4.012;2022-07-09T11:17:18;23.70;99.90
23544;DHT22;11950;51.230;4.012;2022-07-09T11:19:45;23.70;99.90
23544;DHT22;11950;51.230;4.012;2022-07-09T11:22:11;23.70;99.90
23544;DHT22;11950;51.230;4.012;2022-07-09T11:24:37;23.70;99.90
23544;DHT22;11950;51.230;4.012;2022-07-09T11:27:05;23.70;99.90
23544;DHT22;11950;51.230;4.012;2022-07-09T11:29:32;23.70;99.90
23544;DHT22;11950;51.230;4.012;2022-07-09T11:31:58;23.70;99.90
23544;DHT22;11950;51.230;4.012;2022-07-09T11:34:25;23.70;99.90
23544;DHT22;11950;51.230;4.012;2022-07-09T11:36:53;23.60;99.90
23544;DHT22;11950;51.230;4.012;2022-07-09T11:39:27;23.60;99.90
23544;DHT22;11950;51.230;4.012;2022-07-09T11:41:54;23.60;99.90
23544;DHT22;11950;51.230;4.012;2022-07-09T11:44:26;23.60;99.90
23544;DHT22;11950;51.230;4.012;2022-07-09T11:47:19;23.70;99.90
23544;DHT22;11950;51.230;4.012;2022-07-09T11:49:49;23.80;99.90
23544;DHT22;11950;51.230;4.012;2022-07-09T11:52:17;23.70;99.90
23544;DHT22;11950;51.230;4.012;2022-07-09T11:55:05;23.70;99.90
23544;DHT22;11950;51.230;4.012;2022-07-09T11:57:34;23.60;99.90
23544;DHT22;11950;51.230;4.012;2022-07-09T12:00:04;23.60;99.90
23544;DHT22;11950;51.230;4.012;2022-07-09T12:02:38;23.60;99.90
23544;DHT22;11950;51.230;4.012;2022-07-09T12:05:06;23.50;99.90
23544;DHT22;11950;51.230;4.012;2022-07-09T12:07:33;23.40;99.90
23544;DHT22;11950;51.230;4.012;2022-07-09T12:10:08;23.30;99.90
23544;DHT22;11950;51.230;4.012;2022-07-09T12:12:36;23.30;99.90
23544;DHT22;11950;51.230;4.012;2022-07-09T12:15:06;23.30;99.90
23544;DHT22;11950;51.230;4.012;2022-07-09T12:17:34;23.30;99.90
23544;DHT22;11950;51.230;4.012;2022-07-09T12:20:01;23.40;99.90
23544;DHT22;11950;51.230;4.012;2022-07-09T12:22:32;23.50;99.90
23544;DHT22;11950;51.230;4.012;2022-07-09T12:24:59;23.50;99.90
23544;DHT22;11950;51.230;4.012;2022-07-09T12:27:25;23.40;99.90
23544;DHT22;11950;51.230;4.012;2022-07-09T12:29:51;23.40;99.90
23544;DHT22;11950;51.230;4.012;2022-07-09T12:32:18;23.50;99.90
23544;DHT22;11950;51.230;4.012;2022-07-09T12:34:44;23.50;99.90
23544;DHT22;11950;51.230;4.012;2022-07-09T12:37:10;23.40;99.90
23544;DHT22;11950;51.230;4.012;2022-07-09T12:39:36;23.40;99.90
23544;DHT22;11950;51.230;4.012;2022-07-09T12:42:03;23.50;99.90
23544;DHT22;11950;51.230;4.012;2022-07-09T12:44:29;23.50;99.90
23544;DHT22;11950;51.230;4.012;2022-07-09T12:46:56;23.60;99.90
23544;DHT22;11950;51.230;4.012;2022-07-09T12:49:22;23.60;99.90
23544;DHT22;11950;51.230;4.012;2022-07-09T12:51:48;23.50;99.90
23544;DHT22;11950;51.230;4.012;2022-07-09T12:54:15;23.50;99.90
23544;DHT22;11950;51.230;4.012;2022-07-09T12:56:41;23.60;99.90
23544;DHT22;11950;51.230;4.012;2022-07-09T12:59:07;23.70;99.90
23544;DHT22;11950;51.230;4.012;2022-07-09T13:01:33;23.70;99.90
23544;DHT22;11950;51.230;4.012;2022-07-09T13:04:00;23.70;99.90
23544;DHT22;11950;51.230;4.012;2022-07-09T13:06:26;23.70;99.90
23544;DHT22;11950;51.230;4.012;2022-07-09T13:09:03;23.70;99.90
23544;DHT22;11950;51.230;4.012;2022-07-09T13:11:30;23.60;99.90
23544;DHT22;11950;51.230;4.012;2022-07-09T13:13:57;23.50;99.90
23544;DHT22;11950;51.230;4.012;2022-07-09T13:16:24;23.60;99.90
23544;DHT22;11950;51.230;4.012;2022-07-09T13:18:51;23.50;99.90
23544;DHT22;11950;51.230;4.012;2022-07-09T13:21:18;23.50;99.90
23544;DHT22;11950;51.230;4.012;2022-07-09T13:23:46;23.40;99.90
23544;DHT22;11950;51.230;4.012;2022-07-09T13:26:12;23.30;99.90
23544;DHT22;11950;51.230;4.012;2022-07-09T13:28:39;23.30;99.90
23544;DHT22;11950;51.230;4.012;2022-07-09T13:31:05;23.40;99.90
23544;DHT22;11950;51.230;4.012;2022-07-09T13:33:32;23.40;99.90
23544;DHT22;11950;51.230;4.012;2022-07-09T13:36:01;23.50;99.90
23544;DHT22;11950;51.230;4.012;2022-07-09T13:38:27;23.60;99.90
23544;DHT22;11950;51.230;4.012;2022-07-09T13:40:55;23.70;99.90
23544;DHT22;11950;51.230;4.012;2022-07-09T13:43:21;23.70;99.90
23544;DHT22;11950;51.230;4.012;2022-07-09T13:45:50;23.80;99.90
23544;DHT22;11950;51.230;4.012;2022-07-09T13:48:16;23.80;99.90
23544;DHT22;11950;51.230;4.012;2022-07-09T13:50:43;23.80;99.90
23544;DHT22;11950;51.230;4.012;2022-07-09T13:53:09;23.80;99.90
23544;DHT22;11950;51.230;4.012;2022-07-09T13:55:35;23.80;99.90
23544;DHT22;11950;51.230;4.012;2022-07-09T13:58:02;23.70;99.90
23544;DHT22;11950;51.230;4.012;2022-07-09T14:00:28;23.60;99.90
23544;DHT22;11950;51.230;4.012;2022-07-09T14:02:55;23.60;99.90
23544;DHT22;11950;51.230;4.012;2022-07-09T14:05:21;23.60;99.90
23544;DHT22;11950;51.230;4.012;2022-07-09T14:07:47;23.60;99.90
23544;DHT22;11950;51.230;4.012;2022-07-09T14:10:14;23.50;99.90
23544;DHT22;11950;51.230;4.012;2022-07-09T14:12:40;23.40;99.90
23544;DHT22;11950;51.230;4.012;2022-07-09T14:15:06;23.40;99.90
23544;DHT22;11950;51.230;4.012;2022-07-09T14:17:33;23.40;99.90
23544;DHT22;11950;51.230;4.012;2022-07-09T14:19:59;23.50;99.90
23544;DHT22;11950;51.230;4.012;2022-07-09T14:22:26;23.50;99.90
23544;DHT22;11950;51.230;4.012;2022-07-09T14:24:52;23.50;99.90
23544;DHT22;11950;51.230;4.012;2022-07-09T14:27:19;23.50;99.90
23544;DHT22;11950;51.230;4.012;2022-07-09T14:29:45;23.50;99.90
23544;DHT22;11950;51.230;4.012;2022-07-09T14:32:11;23.60;99.90
23544;DHT22;11950;51.230;4.012;2022-07-09T14:34:38;23.70;99.90
23544;DHT22;11950;51.230;4.012;2022-07-09T14:37:04;23.70;99.90
23544;DHT22;11950;51.230;4.012;2022-07-09T14:39:30;23.70;99.90
23544;DHT22;11950;51.230;4.012;2022-07-09T14:41:56;23.50;99.90
23544;DHT22;11950;51.230;4.012;2022-07-09T14:44:23;23.50;99.90
23544;DHT22;11950;51.230;4.012;2022-07-09T14:46:50;23.50;99.90
23544;DHT22;11950;51.230;4.012;2022-07-09T14:49:17;23.60;99.90
23544;DHT22;11950;51.230;4.012;2022-07-09T14:51:43;23.70;99.90
23544;DHT22;11950;51.230;4.012;2022-07-09T14:54:09;23.70;99.90
23544;DHT22;11950;51.230;4.012;2022-07-09T14:56:36;23.80;99.90
23544;DHT22;11950;51.230;4.012;2022-07-09T14:59:02;23.80;99.90
23544;DHT22;11950;51.230;4.012;2022-07-09T15:01:28;23.90;99.90
23544;DHT22;11950;51.230;4.012;2022-07-09T15:03:55;23.90;99.90
23544;DHT22;11950;51.230;4.012;2022-07-09T15:06:21;23.90;99.90
23544;DHT22;11950;51.230;4.012;2022-07-09T15:08:48;23.80;99.90
23544;DHT22;11950;51.230;4.012;2022-07-09T15:11:14;23.80;99.90
23544;DHT22;11950;51.230;4.012;2022-07-09T15:13:40;23.70;99.90
23544;DHT22;11950;51.230;4.012;2022-07-09T15:16:06;23.70;99.90
23544;DHT22;11950;51.230;4.012;2022-07-09T15:18:33;23.70;99.90
23544;DHT22;11950;51.230;4.012;2022-07-09T15:20:59;23.70;99.90
23544;DHT22;11950;51.230;4.012;2022-07-09T15:23:25;23.70;99.90
23544;DHT22;11950;51.230;4.012;2022-07-09T15:25:52;23.70;99.90
23544;DHT22;11950;51.230;4.012;2022-07-09T15:28:18;23.60;99.90
23544;DHT22;11950;51.230;4.012;2022-07-09T15:30:44;23.50;99.90
23544;DHT22;11950;51.230;4.012;2022-07-09T15:33:11;23.50;99.90